sensor_id;sensor_type;location;lat;lon;timestamp;P1;durP1;ratioP1;P2;durP2;ratioP2
68888;SDS011;55930;47.412;8.790;2022-09-21T00:00:33;4.85;;;2.20;;
68888;SDS011;55930;47.412;8.790;2022-09-21T00:03:01;5.88;;;2.50;;
68888;SDS011;55930;47.412;8.790;2022-09-21T00:05:26;9.68;;;2.65;;
68888;SDS011;55930;47.412;8.790;2022-09-21T00:07:52;6.78;;;2.53;;
68888;SDS011;55930;47.412;8.790;2022-09-21T00:10:18;8.75;;;3.10;;
68888;SDS011;55930;47.412;8.790;2022-09-21T00:12:45;5.13;;;2.65;;
68888;SDS011;55930;47.412;8.790;2022-09-21T00:15:12;5.15;;;3.05;;
68888;SDS011;55930;47.412;8.790;2022-09-21T00:17:39;7.55;;;2.85;;
68888;SDS011;55930;47.412;8.790;2022-09-21T00:20:05;7.45;;;3.38;;
68888;SDS011;55930;47.412;8.790;2022-09-21T00:22:31;6.72;;;2.80;;
68888;SDS011;55930;47.412;8.790;2022-09-21T00:24:58;6.10;;;2.70;;
68888;SDS011;55930;47.412;8.790;2022-09-21T00:27:25;6.63;;;3.10;;
68888;SDS011;55930;47.412;8.790;2022-09-21T00:29:56;4.40;;;2.92;;
68888;SDS011;55930;47.412;8.790;2022-09-21T00:32:26;9.77;;;3.10;;
68888;SDS011;55930;47.412;8.790;2022-09-21T00:34:52;5.32;;;2.63;;
68888;SDS011;55930;47.412;8.790;2022-09-21T00:37:20;6.70;;;2.72;;
68888;SDS011;55930;47.412;8.790;2022-09-21T00:39:46;6.78;;;2.92;;
68888;SDS011;55930;47.412;8.790;2022-09-21T00:44:47;7.03;;;2.88;;
68888;SDS011;55930;47.412;8.790;2022-09-21T00:47:14;4.82;;;3.08;;
68888;SDS011;55930;47.412;8.790;2022-09-21T00:49:43;4.40;;;2.72;;
68888;SDS011;55930;47.412;8.790;2022-09-21T00:52:13;8.20;;;3.20;;
68888;SDS011;55930;47.412;8.790;2022-09-21T00:54:53;3.88;;;2.67;;
68888;SDS011;55930;47.412;8.790;2022-09-21T00:57:22;8.13;;;3.20;;
68888;SDS011;55930;47.412;8.790;2022-09-21T00:59:50;7.40;;;2.88;;
68888;SDS011;55930;47.412;8.790;2022-09-21T01:02:22;6.78;;;3.10;;
68888;SDS011;55930;47.412;8.790;2022-09-21T01:04:51;5.32;;;2.78;;
68888;SDS011;55930;47.412;8.790;2022-09-21T01:07:23;6.18;;;2.80;;
68888;SDS011;55930;47.412;8.790;2022-09-21T01:09:53;7.05;;;3.22;;
68888;SDS011;55930;47.412;8.790;2022-09-21T01:12:29;5.03;;;2.70;;
68888;SDS011;55930;47.412;8.790;2022-09-21T01:25:43;5.65;;;3.13;;
68888;SDS011;55930;47.412;8.790;2022-09-21T01:28:24;6.97;;;3.42;;
68888;SDS011;55930;47.412;8.790;2022-09-21T01:30:54;7.10;;;3.50;;
68888;SDS011;55930;47.412;8.790;2022-09-21T01:33:28;6.40;;;3.58;;
68888;SDS011;55930;47.412;8.790;2022-09-21T01:36:00;6.63;;;3.25;;
68888;SDS011;55930;47.412;8.790;2022-09-21T01:38:42;8.32;;;3.53;;
68888;SDS011;55930;47.412;8.790;2022-09-21T01:41:10;8.48;;;3.53;;
68888;SDS011;55930;47.412;8.790;2022-09-21T01:43:41;8.48;;;4.30;;
68888;SDS011;55930;47.412;8.790;2022-09-21T01:46:15;8.80;;;3.47;;
68888;SDS011;55930;47.412;8.790;2022-09-21T01:48:45;7.45;;;3.60;;
68888;SDS011;55930;47.412;8.790;2022-09-21T01:51:14;5.55;;;3.92;;
68888;SDS011;55930;47.412;8.790;2022-09-21T01:53:47;5.20;;;3.05;;
68888;SDS011;55930;47.412;8.790;2022-09-21T01:56:27;10.10;;;4.32;;
68888;SDS011;55930;47.412;8.790;2022-09-21T02:01:47;6.35;;;3.53;;
68888;SDS011;55930;47.412;8.790;2022-09-21T02:04:17;5.68;;;3.28;;
68888;SDS011;55930;47.412;8.790;2022-09-21T02:06:44;8.32;;;3.47;;
68888;SDS011;55930;47.412;8.790;2022-09-21T02:09:10;5.18;;;3.28;;
68888;SDS011;55930;47.412;8.790;2022-09-21T02:11:36;5.88;;;3.33;;
68888;SDS011;55930;47.412;8.790;2022-09-21T02:14:06;5.85;;;3.30;;
68888;SDS011;55930;47.412;8.790;2022-09-21T02:16:39;10.68;;;3.70;;
68888;SDS011;55930;47.412;8.790;2022-09-21T02:19:14;8.23;;;3.20;;
68888;SDS011;55930;47.412;8.790;2022-09-21T02:29:40;5.95;;;3.40;;
68888;SDS011;55930;47.412;8.790;2022-09-21T02:35:20;10.82;;;3.70;;
68888;SDS011;55930;47.412;8.790;2022-09-21T02:37:56;5.25;;;3.38;;
68888;SDS011;55930;47.412;8.790;2022-09-21T02:40:35;6.53;;;3.33;;
68888;SDS011;55930;47.412;8.790;2022-09-21T02:43:44;7.20;;;3.38;;
68888;SDS011;55930;47.412;8.790;2022-09-21T02:46:06;8.60;;;4.13;;
68888;SDS011;55930;47.412;8.790;2022-09-21T02:48:37;9.75;;;4.35;;
68888;SDS011;55930;47.412;8.790;2022-09-21T02:51:28;7.35;;;3.70;;
68888;SDS011;55930;47.412;8.790;2022-09-21T02:53:55;7.72;;;3.92;;
68888;SDS011;55930;47.412;8.790;2022-09-21T02:56:23;6.97;;;3.85;;
68888;SDS011;55930;47.412;8.790;2022-09-21T02:58:51;5.82;;;3.40;;
68888;SDS011;55930;47.412;8.790;2022-09-21T03:01:19;6.90;;;4.53;;
68888;SDS011;55930;47.412;8.790;2022-09-21T03:03:45;8.68;;;3.63;;
68888;SDS011;55930;47.412;8.790;2022-09-21T03:06:13;8.68;;;4.55;;
68888;SDS011;55930;47.412;8.790;2022-09-21T03:08:41;6.00;;;4.50;;
68888;SDS011;55930;47.412;8.790;2022-09-21T03:11:07;9.50;;;3.88;;
68888;SDS011;55930;47.412;8.790;2022-09-21T03:13:33;8.07;;;3.80;;
68888;SDS011;55930;47.412;8.790;2022-09-21T03:15:59;9.13;;;4.28;;
68888;SDS011;55930;47.412;8.790;2022-09-21T03:18:26;9.75;;;4.28;;
68888;SDS011;55930;47.412;8.790;2022-09-21T03:20:51;5.95;;;3.63;;
68888;SDS011;55930;47.412;8.790;2022-09-21T03:23:17;4.65;;;4.03;;
68888;SDS011;55930;47.412;8.790;2022-09-21T03:25:43;8.18;;;4.55;;
68888;SDS011;55930;47.412;8.790;2022-09-21T03:28:12;8.05;;;4.10;;
68888;SDS011;55930;47.412;8.790;2022-09-21T03:30:39;7.25;;;3.92;;
68888;SDS011;55930;47.412;8.790;2022-09-21T03:33:04;6.53;;;4.20;;
68888;SDS011;55930;47.412;8.790;2022-09-21T03:35:30;7.43;;;3.63;;
68888;SDS011;55930;47.412;8.790;2022-09-21T03:37:58;9.60;;;4.97;;
68888;SDS011;55930;47.412;8.790;2022-09-21T03:40:23;6.13;;;4.22;;
68888;SDS011;55930;47.412;8.790;2022-09-21T03:42:51;11.13;;;4.57;;
68888;SDS011;55930;47.412;8.790;2022-09-21T03:45:16;9.52;;;4.97;;
68888;SDS011;55930;47.412;8.790;2022-09-21T03:47:42;7.35;;;4.60;;
68888;SDS011;55930;47.412;8.790;2022-09-21T03:50:08;10.35;;;5.30;;
68888;SDS011;55930;47.412;8.790;2022-09-21T03:52:34;7.45;;;4.68;;
68888;SDS011;55930;47.412;8.790;2022-09-21T03:55:01;7.97;;;5.00;;
68888;SDS011;55930;47.412;8.790;2022-09-21T03:57:31;10.38;;;4.72;;
68888;SDS011;55930;47.412;8.790;2022-09-21T03:59:58;10.63;;;5.13;;
68888;SDS011;55930;47.412;8.790;2022-09-21T04:02:24;10.25;;;5.00;;
68888;SDS011;55930;47.412;8.790;2022-09-21T04:04:49;8.52;;;5.07;;
68888;SDS011;55930;47.412;8.790;2022-09-21T04:07:15;8.95;;;4.88;;
68888;SDS011;55930;47.412;8.790;2022-09-21T04:09:40;7.70;;;5.30;;
68888;SDS011;55930;47.412;8.790;2022-09-21T04:12:06;9.00;;;4.70;;
68888;SDS011;55930;47.412;8.790;2022-09-21T04:14:32;7.70;;;5.03;;
68888;SDS011;55930;47.412;8.790;2022-09-21T04:16:57;9.10;;;4.68;;
68888;SDS011;55930;47.412;8.790;2022-09-21T04:19:23;9.30;;;4.43;;
68888;SDS011;55930;47.412;8.790;2022-09-21T04:21:48;11.05;;;5.07;;
68888;SDS011;55930;47.412;8.790;2022-09-21T04:24:15;8.55;;;4.50;;
68888;SDS011;55930;47.412;8.790;2022-09-21T04:26:44;8.57;;;5.20;;
68888;SDS011;55930;47.412;8.790;2022-09-21T04:29:12;12.35;;;8.93;;
68888;SDS011;55930;47.412;8.790;2022-09-21T04:31:38;7.90;;;6.07;;
68888;SDS011;55930;47.412;8.790;2022-09-21T04:34:04;10.13;;;6.75;;
68888;SDS011;55930;47.412;8.790;2022-09-21T04:36:29;11.13;;;7.15;;
68888;SDS011;55930;47.412;8.790;2022-09-21T04:38:56;11.05;;;8.20;;
68888;SDS011;55930;47.412;8.790;2022-09-21T04:41:24;11.77;;;7.15;;
68888;SDS011;55930;47.412;8.790;2022-09-21T04:43:52;10.38;;;6.38;;
68888;SDS011;55930;47.412;8.790;2022-09-21T04:46:18;10.93;;;6.32;;
68888;SDS011;55930;47.412;8.790;2022-09-21T04:48:44;8.93;;;5.68;;
68888;SDS011;55930;47.412;8.790;2022-09-21T04:51:14;9.60;;;5.53;;
68888;SDS011;55930;47.412;8.790;2022-09-21T04:53:40;10.32;;;5.80;;
68888;SDS011;55930;47.412;8.790;2022-09-21T04:56:07;10.25;;;5.60;;
68888;SDS011;55930;47.412;8.790;2022-09-21T04:58:34;9.60;;;5.40;;
68888;SDS011;55930;47.412;8.790;2022-09-21T05:01:00;8.90;;;5.82;;
68888;SDS011;55930;47.412;8.790;2022-09-21T05:03:26;9.65;;;6.22;;
68888;SDS011;55930;47.412;8.790;2022-09-21T05:05:55;11.75;;;9.20;;
68888;SDS011;55930;47.412;8.790;2022-09-21T05:08:22;91.65;;;63.25;;
68888;SDS011;55930;47.412;8.790;2022-09-21T05:11:08;112.10;;;78.18;;
68888;SDS011;55930;47.412;8.790;2022-09-21T05:13:42;84.97;;;58.38;;
68888;SDS011;55930;47.412;8.790;2022-09-21T05:16:08;58.17;;;41.53;;
68888;SDS011;55930;47.412;8.790;2022-09-21T05:18:33;55.00;;;35.28;;
68888;SDS011;55930;47.412;8.790;2022-09-21T05:20:59;77.75;;;54.47;;
68888;SDS011;55930;47.412;8.790;2022-09-21T05:23:26;72.45;;;43.05;;
68888;SDS011;55930;47.412;8.790;2022-09-21T05:25:55;46.33;;;33.55;;
68888;SDS011;55930;47.412;8.790;2022-09-21T05:28:21;32.88;;;24.20;;
68888;SDS011;55930;47.412;8.790;2022-09-21T05:30:49;22.40;;;17.15;;
68888;SDS011;55930;47.412;8.790;2022-09-21T05:33:26;18.48;;;14.48;;
68888;SDS011;55930;47.412;8.790;2022-09-21T05:36:03;20.38;;;14.23;;
68888;SDS011;55930;47.412;8.790;2022-09-21T05:38:31;18.17;;;13.30;;
68888;SDS011;55930;47.412;8.790;2022-09-21T05:40:57;15.43;;;11.52;;
68888;SDS011;55930;47.412;8.790;2022-09-21T05:43:23;27.45;;;17.00;;
68888;SDS011;55930;47.412;8.790;2022-09-21T05:45:56;35.55;;;27.33;;
68888;SDS011;55930;47.412;8.790;2022-09-21T05:48:45;33.08;;;24.73;;
68888;SDS011;55930;47.412;8.790;2022-09-21T05:51:26;42.58;;;34.35;;
68888;SDS011;55930;47.412;8.790;2022-09-21T05:56:49;14.50;;;10.18;;
68888;SDS011;55930;47.412;8.790;2022-09-21T06:02:06;11.73;;;6.80;;
68888;SDS011;55930;47.412;8.790;2022-09-21T06:04:42;12.98;;;7.10;;
68888;SDS011;55930;47.412;8.790;2022-09-21T06:07:08;14.88;;;7.88;;
68888;SDS011;55930;47.412;8.790;2022-09-21T06:09:33;14.73;;;7.68;;
68888;SDS011;55930;47.412;8.790;2022-09-21T06:11:58;9.55;;;7.18;;
68888;SDS011;55930;47.412;8.790;2022-09-21T06:14:24;11.07;;;7.20;;
68888;SDS011;55930;47.412;8.790;2022-09-21T06:16:50;11.80;;;7.30;;
68888;SDS011;55930;47.412;8.790;2022-09-21T06:19:16;10.30;;;6.75;;
68888;SDS011;55930;47.412;8.790;2022-09-21T06:21:42;11.93;;;5.80;;
68888;SDS011;55930;47.412;8.790;2022-09-21T06:24:08;8.25;;;6.25;;
68888;SDS011;55930;47.412;8.790;2022-09-21T06:26:36;13.07;;;7.18;;
68888;SDS011;55930;47.412;8.790;2022-09-21T06:29:02;12.38;;;6.80;;
68888;SDS011;55930;47.412;8.790;2022-09-21T06:31:28;9.98;;;6.53;;
68888;SDS011;55930;47.412;8.790;2022-09-21T06:33:53;8.23;;;5.45;;
68888;SDS011;55930;47.412;8.790;2022-09-21T06:36:21;10.32;;;6.47;;
68888;SDS011;55930;47.412;8.790;2022-09-21T06:38:47;12.18;;;7.20;;
68888;SDS011;55930;47.412;8.790;2022-09-21T06:41:12;9.65;;;6.32;;
68888;SDS011;55930;47.412;8.790;2022-09-21T06:43:38;14.85;;;6.93;;
68888;SDS011;55930;47.412;8.790;2022-09-21T06:46:03;10.88;;;7.40;;
68888;SDS011;55930;47.412;8.790;2022-09-21T06:48:31;9.05;;;6.95;;
68888;SDS011;55930;47.412;8.790;2022-09-21T06:50:58;12.82;;;7.47;;
68888;SDS011;55930;47.412;8.790;2022-09-21T06:53:24;9.52;;;7.10;;
68888;SDS011;55930;47.412;8.790;2022-09-21T06:55:50;10.18;;;7.20;;
68888;SDS011;55930;47.412;8.790;2022-09-21T06:58:16;11.77;;;7.00;;
68888;SDS011;55930;47.412;8.790;2022-09-21T07:00:43;9.07;;;7.32;;
68888;SDS011;55930;47.412;8.790;2022-09-21T07:03:12;11.95;;;7.63;;
68888;SDS011;55930;47.412;8.790;2022-09-21T07:05:37;8.57;;;6.82;;
68888;SDS011;55930;47.412;8.790;2022-09-21T07:08:03;12.90;;;7.40;;
68888;SDS011;55930;47.412;8.790;2022-09-21T07:10:29;11.98;;;7.05;;
68888;SDS011;55930;47.412;8.790;2022-09-21T07:12:55;9.82;;;6.82;;
68888;SDS011;55930;47.412;8.790;2022-09-21T07:15:20;10.43;;;7.28;;
68888;SDS011;55930;47.412;8.790;2022-09-21T07:17:48;10.18;;;7.20;;
68888;SDS011;55930;47.412;8.790;2022-09-21T07:20:13;10.10;;;6.32;;
68888;SDS011;55930;47.412;8.790;2022-09-21T07:22:40;10.77;;;6.22;;
68888;SDS011;55930;47.412;8.790;2022-09-21T07:25:05;10.77;;;6.95;;
68888;SDS011;55930;47.412;8.790;2022-09-21T07:27:31;12.27;;;6.75;;
68888;SDS011;55930;47.412;8.790;2022-09-21T07:29:57;7.90;;;6.95;;
68888;SDS011;55930;47.412;8.790;2022-09-21T07:32:22;8.85;;;6.28;;
68888;SDS011;55930;47.412;8.790;2022-09-21T07:34:48;8.73;;;6.22;;
68888;SDS011;55930;47.412;8.790;2022-09-21T07:37:14;6.85;;;5.57;;
68888;SDS011;55930;47.412;8.790;2022-09-21T07:39:42;10.45;;;6.18;;
68888;SDS011;55930;47.412;8.790;2022-09-21T07:42:10;7.95;;;5.22;;
68888;SDS011;55930;47.412;8.790;2022-09-21T07:44:35;7.05;;;5.65;;
68888;SDS011;55930;47.412;8.790;2022-09-21T07:47:03;7.45;;;5.43;;
68888;SDS011;55930;47.412;8.790;2022-09-21T07:49:31;8.80;;;4.88;;
68888;SDS011;55930;47.412;8.790;2022-09-21T07:51:56;9.35;;;5.03;;
68888;SDS011;55930;47.412;8.790;2022-09-21T07:54:22;6.90;;;5.00;;
68888;SDS011;55930;47.412;8.790;2022-09-21T07:56:47;6.50;;;4.22;;
68888;SDS011;55930;47.412;8.790;2022-09-21T07:59:32;6.32;;;3.78;;
68888;SDS011;55930;47.412;8.790;2022-09-21T08:01:58;7.63;;;4.30;;
68888;SDS011;55930;47.412;8.790;2022-09-21T08:04:24;9.07;;;4.20;;
68888;SDS011;55930;47.412;8.790;2022-09-21T08:06:49;5.43;;;4.07;;
68888;SDS011;55930;47.412;8.790;2022-09-21T08:09:15;8.90;;;5.40;;
68888;SDS011;55930;47.412;8.790;2022-09-21T08:11:40;7.80;;;4.90;;
68888;SDS011;55930;47.412;8.790;2022-09-21T08:14:10;6.55;;;4.50;;
68888;SDS011;55930;47.412;8.790;2022-09-21T08:16:43;6.28;;;4.22;;
68888;SDS011;55930;47.412;8.790;2022-09-21T08:19:10;6.18;;;4.00;;
68888;SDS011;55930;47.412;8.790;2022-09-21T08:21:35;7.03;;;4.05;;
68888;SDS011;55930;47.412;8.790;2022-09-21T08:24:01;7.07;;;4.05;;
68888;SDS011;55930;47.412;8.790;2022-09-21T08:26:29;5.38;;;3.85;;
68888;SDS011;55930;47.412;8.790;2022-09-21T08:28:54;5.00;;;3.75;;
68888;SDS011;55930;47.412;8.790;2022-09-21T08:31:22;7.30;;;3.80;;
68888;SDS011;55930;47.412;8.790;2022-09-21T08:33:48;7.82;;;3.90;;
68888;SDS011;55930;47.412;8.790;2022-09-21T08:36:14;7.43;;;3.72;;
68888;SDS011;55930;47.412;8.790;2022-09-21T08:38:44;5.22;;;3.63;;
68888;SDS011;55930;47.412;8.790;2022-09-21T08:41:31;8.68;;;3.58;;
68888;SDS011;55930;47.412;8.790;2022-09-21T08:44:17;6.63;;;3.63;;
68888;SDS011;55930;47.412;8.790;2022-09-21T08:46:45;5.30;;;3.63;;
68888;SDS011;55930;47.412;8.790;2022-09-21T08:49:19;5.28;;;3.40;;
68888;SDS011;55930;47.412;8.790;2022-09-21T08:51:52;5.95;;;4.05;;
68888;SDS011;55930;47.412;8.790;2022-09-21T08:54:29;8.40;;;3.67;;
68888;SDS011;55930;47.412;8.790;2022-09-21T08:57:17;5.13;;;3.03;;
68888;SDS011;55930;47.412;8.790;2022-09-21T08:59:44;6.28;;;3.88;;
68888;SDS011;55930;47.412;8.790;2022-09-21T09:04:52;7.10;;;3.90;;
68888;SDS011;55930;47.412;8.790;2022-09-21T09:10:24;6.75;;;3.75;;
68888;SDS011;55930;47.412;8.790;2022-09-21T09:15:51;5.32;;;3.67;;
68888;SDS011;55930;47.412;8.790;2022-09-21T09:21:02;6.85;;;3.60;;
68888;SDS011;55930;47.412;8.790;2022-09-21T09:23:38;7.40;;;3.58;;
68888;SDS011;55930;47.412;8.790;2022-09-21T09:26:50;5.97;;;3.17;;
68888;SDS011;55930;47.412;8.790;2022-09-21T09:29:07;6.00;;;3.08;;
68888;SDS011;55930;47.412;8.790;2022-09-21T09:31:35;5.65;;;3.55;;
68888;SDS011;55930;47.412;8.790;2022-09-21T09:34:09;5.22;;;3.53;;
68888;SDS011;55930;47.412;8.790;2022-09-21T09:36:40;4.70;;;2.97;;
68888;SDS011;55930;47.412;8.790;2022-09-21T09:39:13;4.88;;;2.88;;
68888;SDS011;55930;47.412;8.790;2022-09-21T09:53:01;6.18;;;3.00;;
68888;SDS011;55930;47.412;8.790;2022-09-21T09:55:37;5.57;;;3.10;;
68888;SDS011;55930;47.412;8.790;2022-09-21T09:58:05;6.90;;;2.25;;
68888;SDS011;55930;47.412;8.790;2022-09-21T10:00:43;7.47;;;2.80;;
68888;SDS011;55930;47.412;8.790;2022-09-21T10:03:19;7.10;;;3.00;;
68888;SDS011;55930;47.412;8.790;2022-09-21T10:05:49;4.18;;;3.00;;
68888;SDS011;55930;47.412;8.790;2022-09-21T10:11:04;5.53;;;2.50;;
68888;SDS011;55930;47.412;8.790;2022-09-21T10:13:42;4.25;;;2.53;;
68888;SDS011;55930;47.412;8.790;2022-09-21T10:16:11;4.07;;;2.50;;
68888;SDS011;55930;47.412;8.790;2022-09-21T10:21:21;5.07;;;2.50;;
68888;SDS011;55930;47.412;8.790;2022-09-21T10:24:02;4.00;;;2.00;;
68888;SDS011;55930;47.412;8.790;2022-09-21T10:26:39;3.38;;;2.03;;
68888;SDS011;55930;47.412;8.790;2022-09-21T10:29:18;3.00;;;1.90;;
68888;SDS011;55930;47.412;8.790;2022-09-21T10:31:58;3.38;;;1.90;;
68888;SDS011;55930;47.412;8.790;2022-09-21T10:34:29;3.75;;;1.75;;
68888;SDS011;55930;47.412;8.790;2022-09-21T10:37:27;4.22;;;1.98;;
68888;SDS011;55930;47.412;8.790;2022-09-21T10:39:58;3.20;;;1.70;;
68888;SDS011;55930;47.412;8.790;2022-09-21T10:42:25;4.35;;;2.03;;
68888;SDS011;55930;47.412;8.790;2022-09-21T10:45:12;2.85;;;1.52;;
68888;SDS011;55930;47.412;8.790;2022-09-21T10:47:45;3.78;;;1.75;;
68888;SDS011;55930;47.412;8.790;2022-09-21T10:55:32;3.67;;;1.83;;
68888;SDS011;55930;47.412;8.790;2022-09-21T10:58:07;3.45;;;1.73;;
68888;SDS011;55930;47.412;8.790;2022-09-21T11:00:41;4.75;;;1.70;;
68888;SDS011;55930;47.412;8.790;2022-09-21T11:03:29;4.13;;;2.13;;
68888;SDS011;55930;47.412;8.790;2022-09-21T11:05:58;2.30;;;1.30;;
68888;SDS011;55930;47.412;8.790;2022-09-21T11:08:42;3.50;;;1.30;;
68888;SDS011;55930;47.412;8.790;2022-09-21T11:11:22;5.20;;;1.55;;
68888;SDS011;55930;47.412;8.790;2022-09-21T11:16:57;4.18;;;1.73;;
68888;SDS011;55930;47.412;8.790;2022-09-21T11:19:48;2.47;;;1.05;;
68888;SDS011;55930;47.412;8.790;2022-09-21T11:28:01;2.13;;;1.15;;
68888;SDS011;55930;47.412;8.790;2022-09-21T11:33:46;2.67;;;1.58;;
68888;SDS011;55930;47.412;8.790;2022-09-21T11:54:57;5.07;;;1.48;;
68888;SDS011;55930;47.412;8.790;2022-09-21T12:00:18;4.88;;;1.65;;
68888;SDS011;55930;47.412;8.790;2022-09-21T12:19:03;3.15;;;1.20;;
68888;SDS011;55930;47.412;8.790;2022-09-21T12:21:36;1.75;;;0.88;;
68888;SDS011;55930;47.412;8.790;2022-09-21T12:24:26;2.95;;;0.90;;
68888;SDS011;55930;47.412;8.790;2022-09-21T12:26:56;1.63;;;0.90;;
68888;SDS011;55930;47.412;8.790;2022-09-21T12:29:29;1.92;;;1.05;;
68888;SDS011;55930;47.412;8.790;2022-09-21T12:32:17;2.65;;;0.98;;
68888;SDS011;55930;47.412;8.790;2022-09-21T12:34:59;3.55;;;1.17;;
68888;SDS011;55930;47.412;8.790;2022-09-21T12:37:31;3.85;;;1.40;;
68888;SDS011;55930;47.412;8.790;2022-09-21T12:45:16;1.80;;;0.90;;
68888;SDS011;55930;47.412;8.790;2022-09-21T12:47:56;3.15;;;0.85;;
68888;SDS011;55930;47.412;8.790;2022-09-21T12:50:37;16.80;;;3.97;;
68888;SDS011;55930;47.412;8.790;2022-09-21T12:53:13;3.90;;;1.45;;
68888;SDS011;55930;47.412;8.790;2022-09-21T13:09:39;2.35;;;0.95;;
68888;SDS011;55930;47.412;8.790;2022-09-21T13:14:40;2.58;;;0.90;;
68888;SDS011;55930;47.412;8.790;2022-09-21T13:17:14;2.78;;;1.42;;
68888;SDS011;55930;47.412;8.790;2022-09-21T13:19:48;1.88;;;1.00;;
68888;SDS011;55930;47.412;8.790;2022-09-21T13:22:26;2.97;;;0.90;;
68888;SDS011;55930;47.412;8.790;2022-09-21T13:44:13;2.35;;;0.82;;
68888;SDS011;55930;47.412;8.790;2022-09-21T13:51:34;3.15;;;0.98;;
68888;SDS011;55930;47.412;8.790;2022-09-21T13:54:00;1.25;;;0.77;;
68888;SDS011;55930;47.412;8.790;2022-09-21T13:56:29;4.40;;;1.13;;
68888;SDS011;55930;47.412;8.790;2022-09-21T14:01:23;1.88;;;0.73;;
68888;SDS011;55930;47.412;8.790;2022-09-21T14:03:57;3.40;;;1.05;;
68888;SDS011;55930;47.412;8.790;2022-09-21T14:06:34;1.45;;;0.80;;
68888;SDS011;55930;47.412;8.790;2022-09-21T14:09:07;2.88;;;1.13;;
68888;SDS011;55930;47.412;8.790;2022-09-21T14:11:49;2.20;;;1.10;;
68888;SDS011;55930;47.412;8.790;2022-09-21T14:14:32;1.83;;;0.70;;
68888;SDS011;55930;47.412;8.790;2022-09-21T14:17:01;1.85;;;0.60;;
68888;SDS011;55930;47.412;8.790;2022-09-21T14:32:16;2.85;;;1.25;;
68888;SDS011;55930;47.412;8.790;2022-09-21T14:34:49;1.17;;;0.85;;
68888;SDS011;55930;47.412;8.790;2022-09-21T14:38:00;2.28;;;1.25;;
68888;SDS011;55930;47.412;8.790;2022-09-21T14:40:17;3.45;;;1.00;;
68888;SDS011;55930;47.412;8.790;2022-09-21T14:42:48;4.03;;;1.08;;
68888;SDS011;55930;47.412;8.790;2022-09-21T14:45:15;1.63;;;0.75;;
68888;SDS011;55930;47.412;8.790;2022-09-21T14:47:48;1.98;;;1.05;;
68888;SDS011;55930;47.412;8.790;2022-09-21T15:01:14;2.47;;;0.90;;
68888;SDS011;55930;47.412;8.790;2022-09-21T15:09:43;2.28;;;0.85;;
68888;SDS011;55930;47.412;8.790;2022-09-21T15:17:59;3.05;;;0.82;;
68888;SDS011;55930;47.412;8.790;2022-09-21T15:20:28;2.67;;;1.10;;
68888;SDS011;55930;47.412;8.790;2022-09-21T15:22:56;1.85;;;0.70;;
68888;SDS011;55930;47.412;8.790;2022-09-21T15:25:27;1.77;;;0.70;;
68888;SDS011;55930;47.412;8.790;2022-09-21T15:27:56;2.22;;;0.82;;
68888;SDS011;55930;47.412;8.790;2022-09-21T15:30:23;3.05;;;0.70;;
68888;SDS011;55930;47.412;8.790;2022-09-21T15:32:54;2.50;;;0.80;;
68888;SDS011;55930;47.412;8.790;2022-09-21T15:35:29;1.25;;;0.70;;
68888;SDS011;55930;47.412;8.790;2022-09-21T15:37:59;3.20;;;0.85;;
68888;SDS011;55930;47.412;8.790;2022-09-21T15:40:32;4.20;;;0.85;;
68888;SDS011;55930;47.412;8.790;2022-09-21T15:45:31;1.95;;;1.13;;
68888;SDS011;55930;47.412;8.790;2022-09-21T15:48:01;7.30;;;0.85;;
68888;SDS011;55930;47.412;8.790;2022-09-21T15:50:30;0.93;;;0.57;;
68888;SDS011;55930;47.412;8.790;2022-09-21T15:53:04;2.85;;;0.95;;
68888;SDS011;55930;47.412;8.790;2022-09-21T15:55:36;1.83;;;0.70;;
68888;SDS011;55930;47.412;8.790;2022-09-21T15:58:25;2.65;;;0.70;;
68888;SDS011;55930;47.412;8.790;2022-09-21T16:00:59;1.50;;;0.60;;
68888;SDS011;55930;47.412;8.790;2022-09-21T16:03:34;1.45;;;0.65;;
68888;SDS011;55930;47.412;8.790;2022-09-21T16:06:00;1.95;;;0.60;;
68888;SDS011;55930;47.412;8.790;2022-09-21T16:08:47;1.42;;;0.68;;
68888;SDS011;55930;47.412;8.790;2022-09-21T16:11:17;1.90;;;0.70;;
68888;SDS011;55930;47.412;8.790;2022-09-21T16:14:02;3.58;;;0.70;;
68888;SDS011;55930;47.412;8.790;2022-09-21T16:19:43;1.20;;;0.55;;
68888;SDS011;55930;47.412;8.790;2022-09-21T16:22:39;2.20;;;0.60;;
68888;SDS011;55930;47.412;8.790;2022-09-21T16:25:40;0.60;;;0.60;;
68888;SDS011;55930;47.412;8.790;2022-09-21T16:30:56;1.73;;;0.52;;
68888;SDS011;55930;47.412;8.790;2022-09-21T16:33:39;1.75;;;0.70;;
68888;SDS011;55930;47.412;8.790;2022-09-21T16:38:49;2.95;;;0.80;;
68888;SDS011;55930;47.412;8.790;2022-09-21T16:41:17;1.92;;;0.65;;
68888;SDS011;55930;47.412;8.790;2022-09-21T16:43:46;1.95;;;0.90;;
68888;SDS011;55930;47.412;8.790;2022-09-21T16:46:11;1.30;;;0.60;;
68888;SDS011;55930;47.412;8.790;2022-09-21T16:48:37;0.95;;;0.50;;
68888;SDS011;55930;47.412;8.790;2022-09-21T16:51:13;1.80;;;0.70;;
68888;SDS011;55930;47.412;8.790;2022-09-21T16:53:46;2.60;;;0.80;;
68888;SDS011;55930;47.412;8.790;2022-09-21T16:56:12;2.17;;;0.52;;
68888;SDS011;55930;47.412;8.790;2022-09-21T16:58:39;2.28;;;0.80;;
68888;SDS011;55930;47.412;8.790;2022-09-21T17:01:11;2.08;;;0.90;;
68888;SDS011;55930;47.412;8.790;2022-09-21T17:03:39;2.17;;;0.80;;
68888;SDS011;55930;47.412;8.790;2022-09-21T17:08:42;3.22;;;1.00;;
68888;SDS011;55930;47.412;8.790;2022-09-21T17:11:07;1.52;;;0.90;;
68888;SDS011;55930;47.412;8.790;2022-09-21T17:13:35;2.33;;;1.00;;
68888;SDS011;55930;47.412;8.790;2022-09-21T17:16:02;2.33;;;0.70;;
68888;SDS011;55930;47.412;8.790;2022-09-21T17:18:30;3.67;;;0.82;;
68888;SDS011;55930;47.412;8.790;2022-09-21T17:20:55;2.03;;;0.82;;
68888;SDS011;55930;47.412;8.790;2022-09-21T17:23:20;1.35;;;0.68;;
68888;SDS011;55930;47.412;8.790;2022-09-21T17:25:55;1.75;;;0.80;;
68888;SDS011;55930;47.412;8.790;2022-09-21T17:28:24;1.90;;;0.90;;
68888;SDS011;55930;47.412;8.790;2022-09-21T17:30:51;1.38;;;0.70;;
68888;SDS011;55930;47.412;8.790;2022-09-21T17:33:17;3.85;;;1.10;;
68888;SDS011;55930;47.412;8.790;2022-09-21T17:35:43;2.70;;;1.20;;
68888;SDS011;55930;47.412;8.790;2022-09-21T17:38:09;2.83;;;0.75;;
68888;SDS011;55930;47.412;8.790;2022-09-21T17:40:35;2.55;;;0.73;;
68888;SDS011;55930;47.412;8.790;2022-09-21T17:48:59;3.15;;;0.93;;
68888;SDS011;55930;47.412;8.790;2022-09-21T17:51:25;3.30;;;1.20;;
68888;SDS011;55930;47.412;8.790;2022-09-21T17:54:10;4.07;;;1.30;;
68888;SDS011;55930;47.412;8.790;2022-09-21T17:56:38;3.28;;;1.20;;
68888;SDS011;55930;47.412;8.790;2022-09-21T18:01:57;3.45;;;1.08;;
68888;SDS011;55930;47.412;8.790;2022-09-21T18:04:26;2.10;;;1.17;;
68888;SDS011;55930;47.412;8.790;2022-09-21T18:06:57;6.03;;;0.95;;
68888;SDS011;55930;47.412;8.790;2022-09-21T18:09:25;3.85;;;1.13;;
68888;SDS011;55930;47.412;8.790;2022-09-21T18:25:39;2.88;;;1.00;;
68888;SDS011;55930;47.412;8.790;2022-09-21T18:28:16;1.60;;;0.73;;
68888;SDS011;55930;47.412;8.790;2022-09-21T18:30:49;3.08;;;1.10;;
68888;SDS011;55930;47.412;8.790;2022-09-21T18:33:25;3.28;;;1.58;;
68888;SDS011;55930;47.412;8.790;2022-09-21T18:38:39;1.95;;;1.02;;
68888;SDS011;55930;47.412;8.790;2022-09-21T18:44:29;2.90;;;1.00;;
68888;SDS011;55930;47.412;8.790;2022-09-21T18:50:02;3.60;;;0.85;;
68888;SDS011;55930;47.412;8.790;2022-09-21T18:52:59;2.05;;;1.02;;
68888;SDS011;55930;47.412;8.790;2022-09-21T18:55:27;1.30;;;0.77;;
68888;SDS011;55930;47.412;8.790;2022-09-21T18:57:59;1.98;;;1.27;;
68888;SDS011;55930;47.412;8.790;2022-09-21T19:03:02;2.53;;;1.10;;
68888;SDS011;55930;47.412;8.790;2022-09-21T19:05:30;1.73;;;0.82;;
68888;SDS011;55930;47.412;8.790;2022-09-21T19:10:38;2.88;;;0.82;;
68888;SDS011;55930;47.412;8.790;2022-09-21T19:18:52;2.30;;;1.00;;
68888;SDS011;55930;47.412;8.790;2022-09-21T19:30:02;2.03;;;0.90;;